< < Back
Terminal Aerodrome Forecast


Current Version              Previous Versions:   1  2  3  4  5  6  7  8  9  

Terminal Aerodrome Forecast

364
FTUS42 KGSP 041208 AAA
TAFAVL
TAF AMD
KAVL 041208Z 0412/0512 23003KT P6SM -SHRA SCT010 OVC080
     FM041500 22005KT P6SM VCSH OVC035
     FM042100 21004KT P6SM -SHRA VCTS SCT040 BKN080CB
     FM050200 00000KT P6SM BKN060 OVC250
     FM050800 00000KT P6SM OVC025=

Latest METAR

229
SAUS70 KWBC 041300 RRB
MTRAVL
METAR KAVL 041254Z 33007KT 10SM FEW004 FEW038 SCT100 19/18 A3005 RMK AO2
SLP153 T01940178


USA.gov is the U.S. government's official web portal to all federal, state and local government web resources and services.